Time;durP1;ratioP1;P1;durP2;ratioP2;P2;SDS_P1;SDS_P2;PMS_P1;PMS_P2;Temp;Humidity;BMP_temperature;BMP_pressure;BME280_temperature;BME280_humidity;BME280_pressure;Samples;Min_cycle;Max_cycle;Signal;HPM_P1;HPM_P2
2022/11/30 00:00:21;;;;;;;40.75;9.93;;;;;;;0.01;0.00;59042.03;5100301;28;20028;-53
2022/11/30 00:02:52;;;;;;;37.85;9.90;;;;;;;0.01;0.00;59042.03;5100855;28;20508;-52
2022/11/30 00:05:19;;;;;;;26.67;7.70;;;;;;;0.01;0.00;59042.03;5099146;28;20039;-53
2022/11/30 00:07:44;;;;;;;40.58;10.07;;;;;;;0.01;0.00;59042.03;5100922;28;20678;-53
2022/11/30 00:10:09;;;;;;;34.92;9.35;;;;;;;0.01;0.00;59042.03;5100087;28;20036;-53
2022/11/30 00:12:35;;;;;;;38.25;10.23;;;;;;;0.01;0.00;59042.03;5100944;28;20767;-52
2022/11/30 00:15:00;;;;;;;42.03;10.93;;;;;;;0.01;0.00;59042.03;5100830;28;20427;-54
2022/11/30 00:17:25;;;;;;;31.48;8.88;;;;;;;0.01;0.00;59042.03;5099760;28;20032;-54
2022/11/30 00:19:51;;;;;;;42.60;10.23;;;;;;;0.01;0.00;59042.03;5100070;28;20020;-56
2022/11/30 00:22:16;;;;;;;35.42;9.32;;;;;;;0.01;0.00;59042.03;5099980;28;20092;-52
2022/11/30 00:24:41;;;;;;;36.92;11.52;;;;;;;0.01;0.00;59042.03;5100301;28;20045;-56
2022/11/30 00:27:07;;;;;;;35.83;10.00;;;;;;;0.01;0.00;59042.03;5099922;28;20130;-55
2022/11/30 00:29:33;;;;;;;38.17;11.77;;;;;;;0.01;0.00;59042.03;5100604;28;20038;-55
2022/11/30 00:31:58;;;;;;;45.67;11.90;;;;;;;0.01;0.00;59042.03;5099286;28;20134;-53
2022/11/30 00:34:23;;;;;;;41.95;12.25;;;;;;;0.01;0.00;59042.03;5100523;28;20049;-52
2022/11/30 00:36:49;;;;;;;41.55;10.68;;;;;;;0.01;0.00;59042.03;5098347;28;20059;-54
2022/11/30 00:39:14;;;;;;;41.95;12.90;;;;;;;0.01;0.00;59042.03;5100495;28;20020;-54
2022/11/30 00:41:39;;;;;;;38.25;12.05;;;;;;;0.01;0.00;59042.03;5099596;28;20119;-52
2022/11/30 00:44:05;;;;;;;50.50;12.20;;;;;;;0.01;0.00;59042.03;5099635;28;20050;-53
2022/11/30 00:46:30;;;;;;;66.57;14.20;;;;;;;0.01;0.00;59042.03;5098055;28;20036;-53
2022/11/30 00:48:55;;;;;;;39.00;9.93;;;;;;;0.01;0.00;59042.03;5099371;28;20114;-54
2022/11/30 00:51:21;;;;;;;36.63;9.98;;;;;;;0.01;0.00;59042.03;5098932;28;20040;-55
2022/11/30 00:53:46;;;;;;;45.05;12.05;;;;;;;0.01;0.00;59042.03;5099741;28;20023;-54
2022/11/30 00:56:12;;;;;;;54.97;14.32;;;;;;;0.01;0.00;59042.03;5098811;28;20580;-54
2022/11/30 00:58:37;;;;;;;50.22;12.85;;;;;;;0.01;0.00;59042.03;5099869;28;20019;-53
2022/11/30 01:01:03;;;;;;;54.30;13.93;;;;;;;0.01;0.00;59042.03;5098882;28;20147;-54
2022/11/30 01:03:29;;;;;;;51.85;13.43;;;;;;;0.01;0.00;59042.03;5099374;28;20015;-53
2022/11/30 01:05:54;;;;;;;41.22;10.52;;;;;;;0.01;0.00;59042.03;5099029;28;20035;-54
2022/11/30 01:08:19;;;;;;;58.10;15.13;;;;;;;0.01;0.00;59042.03;5099177;28;20028;-54
2022/11/30 01:10:48;;;;;;;48.17;12.70;;;;;;;0.01;0.00;59042.03;5098576;28;20040;-53
2022/11/30 01:13:14;;;;;;;45.65;13.10;;;;;;;0.01;0.00;59042.03;5099090;28;20609;-52
2022/11/30 01:15:41;;;;;;;44.50;12.48;;;;;;;0.01;0.00;59042.03;5098842;28;20080;-53
2022/11/30 01:18:07;;;;;;;48.85;12.23;;;;;;;0.01;0.00;59042.03;5099134;28;20020;-53
2022/11/30 01:20:32;;;;;;;52.17;15.55;;;;;;;0.01;0.00;59042.03;5098369;28;20047;-53
2022/11/30 01:22:58;;;;;;;54.33;15.02;;;;;;;0.01;0.00;59042.03;5099682;28;20118;-55
2022/11/30 01:25:23;;;;;;;53.15;15.00;;;;;;;0.01;0.00;59042.03;5098815;28;20184;-55
2022/11/30 01:27:49;;;;;;;51.50;13.98;;;;;;;0.01;0.00;59042.03;5099267;28;20059;-54
2022/11/30 01:30:16;;;;;;;60.50;15.05;;;;;;;0.01;0.00;59042.03;5098285;28;20027;-56
2022/11/30 01:32:41;;;;;;;50.78;14.02;;;;;;;0.01;0.00;59042.03;5098735;28;20027;-55
2022/11/30 01:35:07;;;;;;;41.58;12.02;;;;;;;0.01;0.00;59042.03;5098916;28;20027;-55
2022/11/30 01:37:33;;;;;;;48.80;14.57;;;;;;;0.01;0.00;59042.03;5098799;28;20089;-53
2022/11/30 01:39:58;;;;;;;50.42;12.80;;;;;;;0.01;0.00;59042.03;5098673;28;20595;-54
2022/11/30 01:42:24;;;;;;;50.03;12.90;;;;;;;0.01;0.00;59042.03;5098442;28;20047;-55
2022/11/30 01:44:57;;;;;;;56.42;13.77;;;;;;;0.01;0.00;59042.03;5098913;28;20077;-56
2022/11/30 01:47:32;;;;;;;48.97;13.48;;;;;;;0.01;0.00;59042.03;5098626;28;20043;-55
2022/11/30 01:50:04;;;;;;;60.70;13.82;;;;;;;0.01;0.00;59042.03;5097950;28;20407;-56
2022/11/30 01:52:38;;;;;;;;;;;;;;;0.01;0.00;59042.03;5099257;28;20039;-56
2022/11/30 01:55:06;;;;;;;45.67;12.07;;;;;;;0.01;0.00;59042.03;5099047;28;20291;-55
2022/11/30 01:57:39;;;;;;;38.42;8.82;;;;;;;0.01;0.00;59042.03;5098308;28;20028;-55
2022/11/30 02:00:08;;;;;;;45.25;12.90;;;;;;;0.01;0.00;59042.03;5097997;28;20024;-55
2022/11/30 02:02:39;;;;;;;42.55;12.00;;;;;;;0.01;0.00;59042.03;5098530;28;20023;-53
2022/11/30 02:05:05;;;;;;;47.65;12.77;;;;;;;0.01;0.00;59042.03;5097264;28;20023;-54
2022/11/30 02:07:31;;;;;;;55.38;14.15;;;;;;;0.01;0.00;59042.03;5098638;28;20038;-53
2022/11/30 02:09:56;;;;;;;54.22;15.38;;;;;;;0.01;0.00;59042.03;5098574;28;20439;-53
2022/11/30 02:12:46;;;;;;;50.72;14.07;;;;;;;0.01;0.00;59042.03;5098583;28;20062;-53
2022/11/30 02:15:19;;;;;;;52.17;13.68;;;;;;;0.01;0.00;59042.03;5097391;28;20023;-55
2022/11/30 02:18:00;;;;;;;47.08;12.30;;;;;;;0.01;0.00;59042.03;5098529;28;20076;-56
2022/11/30 02:20:37;;;;;;;54.22;13.77;;;;;;;0.01;0.00;59042.03;5097640;28;20176;-53
2022/11/30 02:23:41;;;;;;;54.25;13.43;;;;;;;0.01;0.00;59042.03;5098352;28;20073;-55
2022/11/30 02:26:31;;;;;;;48.05;13.50;;;;;;;0.01;0.00;59042.03;5073552;28;20066;-53
2022/11/30 02:29:11;;;;;;;48.55;12.70;;;;;;;0.01;0.00;59042.03;5097795;28;20369;-52
2022/11/30 02:31:57;;;;;;;47.53;13.65;;;;;;;0.01;0.00;59042.03;5097482;28;20146;-54
2022/11/30 02:34:26;;;;;;;52.45;13.88;;;;;;;0.01;0.00;59042.03;5098094;28;20035;-54
2022/11/30 02:36:54;;;;;;;43.80;12.38;;;;;;;0.01;0.00;59042.03;5097912;28;20122;-55
2022/11/30 02:39:21;;;;;;;52.28;14.02;;;;;;;0.01;0.00;59042.03;5098175;28;20023;-53
2022/11/30 02:41:46;;;;;;;54.95;13.82;;;;;;;0.01;0.00;59042.03;5097590;28;20088;-53
2022/11/30 02:44:12;;;;;;;47.60;13.27;;;;;;;0.01;0.00;59042.03;5098074;28;20019;-55
2022/11/30 02:47:19;;;;;;;46.63;10.80;;;;;;;0.01;0.00;59042.03;5097442;28;20031;-52
2022/11/30 02:50:08;;;;;;;56.40;13.57;;;;;;;0.01;0.00;59042.03;5097575;28;20214;-54
2022/11/30 02:52:33;;;;;;;56.13;14.65;;;;;;;0.01;0.00;59042.03;5096695;28;20039;-53
2022/11/30 02:55:05;;;;;;;54.58;13.40;;;;;;;0.01;0.00;59042.03;5098054;28;20031;-55
2022/11/30 02:57:31;;;;;;;59.88;13.68;;;;;;;0.01;0.00;59042.03;5097735;28;20040;-53
2022/11/30 02:59:58;;;;;;;49.25;13.27;;;;;;;0.01;0.00;59042.03;5097841;28;20038;-53
2022/11/30 03:02:23;;;;;;;48.58;12.32;;;;;;;0.01;0.00;59042.03;5097427;28;20047;-57
2022/11/30 03:04:48;;;;;;;58.00;13.93;;;;;;;0.01;0.00;59042.03;5097682;28;20028;-55
2022/11/30 03:07:14;;;;;;;46.13;12.85;;;;;;;0.01;0.00;59042.03;5097415;28;20040;-56
2022/11/30 03:09:39;;;;;;;54.47;13.55;;;;;;;0.01;0.00;59042.03;5097696;28;20398;-53
2022/11/30 03:12:04;;;;;;;53.55;12.43;;;;;;;0.01;0.00;59042.03;5097627;28;20529;-53
2022/11/30 03:14:30;;;;;;;48.30;13.20;;;;;;;0.01;0.00;59042.03;5097644;28;20035;-55
2022/11/30 03:16:55;;;;;;;57.13;13.98;;;;;;;0.01;0.00;59042.03;5097172;28;20711;-54
2022/11/30 03:19:21;;;;;;;52.25;13.40;;;;;;;0.01;0.00;59042.03;5097708;28;20102;-55
2022/11/30 03:21:46;;;;;;;57.10;14.02;;;;;;;0.01;0.00;59042.03;5097149;28;20466;-53
2022/11/30 03:24:11;;;;;;;53.38;12.85;;;;;;;0.01;0.00;59042.03;5097675;28;20049;-54
2022/11/30 03:26:37;;;;;;;47.28;12.63;;;;;;;0.01;0.00;59042.03;5097569;28;20039;-53
2022/11/30 03:29:02;;;;;;;43.05;9.63;;;;;;;0.01;0.00;59042.03;5097346;28;20481;-52
2022/11/30 03:31:28;;;;;;;47.70;11.40;;;;;;;0.01;0.00;59042.03;5097240;28;20039;-53
2022/11/30 03:33:53;;;;;;;50.90;13.43;;;;;;;0.01;0.00;59042.03;5076464;28;20638;-53
2022/11/30 03:36:18;;;;;;;53.13;12.52;;;;;;;0.01;0.00;59042.03;5097277;28;20070;-53
2022/11/30 03:38:46;;;;;;;39.40;10.45;;;;;;;0.01;0.00;59042.03;5098981;28;20020;-52
2022/11/30 03:41:13;;;;;;;59.42;13.70;;;;;;;0.01;0.00;59042.03;5100776;28;20085;-53
2022/11/30 03:43:39;;;;;;;35.95;9.07;;;;;;;0.01;0.00;59042.03;5101078;28;20675;-52
2022/11/30 03:46:05;;;;;;;60.83;13.80;;;;;;;0.01;0.00;59042.03;5100768;28;20118;-54
2022/11/30 03:48:30;;;;;;;50.85;13.05;;;;;;;0.01;0.00;59042.03;5101155;28;20035;-55
2022/11/30 03:50:56;;;;;;;52.05;13.43;;;;;;;0.01;0.00;59042.03;5100280;28;20032;-53
2022/11/30 03:53:23;;;;;;;55.90;14.65;;;;;;;0.01;0.00;59042.03;5100424;28;20038;-55
2022/11/30 03:55:56;;;;;;;59.22;15.77;;;;;;;0.01;0.00;59042.03;5100731;28;20027;-54
2022/11/30 03:58:22;;;;;;;62.30;16.35;;;;;;;0.01;0.00;59042.03;5100882;28;20023;-53
2022/11/30 04:00:48;;;;;;;55.22;14.50;;;;;;;0.01;0.00;59042.03;5100251;28;20035;-54
2022/11/30 04:03:14;;;;;;;54.38;15.23;;;;;;;0.01;0.00;59042.03;5100822;28;20117;-52
2022/11/30 04:05:39;;;;;;;62.03;15.45;;;;;;;0.01;0.00;59042.03;5100248;28;20039;-54
2022/11/30 04:08:04;;;;;;;65.43;16.58;;;;;;;0.01;0.00;59042.03;5101505;28;20409;-53
2022/11/30 04:10:30;;;;;;;59.47;13.82;;;;;;;0.01;0.00;59042.03;5100045;28;20389;-55
2022/11/30 04:12:55;;;;;;;63.20;16.23;;;;;;;0.01;0.00;59042.03;5101084;28;20026;-56
2022/11/30 04:15:21;;;;;;;54.80;14.07;;;;;;;0.01;0.00;59042.03;5100024;28;20028;-56
2022/11/30 04:17:46;;;;;;;60.92;16.73;;;;;;;0.01;0.00;59042.03;5100560;28;20657;-56
2022/11/30 04:20:11;;;;;;;61.05;15.85;;;;;;;0.01;0.00;59042.03;5100129;28;20463;-52
2022/11/30 04:22:37;;;;;;;64.15;16.25;;;;;;;0.01;0.00;59042.03;5100309;28;20420;-53
2022/11/30 04:25:02;;;;;;;65.30;16.60;;;;;;;0.01;0.00;59042.03;5100505;28;20395;-53
2022/11/30 04:27:28;;;;;;;75.63;18.33;;;;;;;0.01;0.00;59042.03;5100015;28;20070;-53
2022/11/30 04:29:53;;;;;;;79.60;21.27;;;;;;;0.01;0.00;59042.03;5099901;28;20027;-55
2022/11/30 04:32:19;;;;;;;74.10;17.83;;;;;;;0.01;0.00;59042.03;5099797;28;20063;-53
2022/11/30 04:34:44;;;;;;;61.58;16.38;;;;;;;0.01;0.00;59042.03;5099712;28;20039;-54
2022/11/30 04:37:09;;;;;;;73.25;17.48;;;;;;;0.01;0.00;59042.03;5099793;28;20036;-53
2022/11/30 04:39:35;;;;;;;70.05;17.10;;;;;;;0.01;0.00;59042.03;5100216;28;20038;-53
2022/11/30 04:42:00;;;;;;;67.38;15.07;;;;;;;0.01;0.00;59042.03;5099348;28;20402;-53
2022/11/30 04:44:26;;;;;;;65.07;15.55;;;;;;;0.01;0.00;59042.03;5099649;28;20027;-54
2022/11/30 04:46:51;;;;;;;80.05;18.08;;;;;;;0.01;0.00;59042.03;5099385;28;20351;-55
2022/11/30 04:49:16;;;;;;;69.63;18.85;;;;;;;0.01;0.00;59042.03;5100032;28;20024;-53
2022/11/30 04:51:42;;;;;;;70.45;18.13;;;;;;;0.01;0.00;59042.03;5098771;28;20130;-55
2022/11/30 04:54:07;;;;;;;77.82;17.52;;;;;;;0.01;0.00;59042.03;5099993;28;20034;-54
2022/11/30 04:56:32;;;;;;;75.43;17.02;;;;;;;0.01;0.00;59042.03;5099619;28;20125;-54
2022/11/30 04:59:00;;;;;;;55.15;12.57;;;;;;;0.01;0.00;59042.03;5099818;28;20514;-53
2022/11/30 05:01:25;;;;;;;71.65;18.52;;;;;;;0.01;0.00;59042.03;5098993;28;20071;-54
2022/11/30 05:03:51;;;;;;;75.68;17.20;;;;;;;0.01;0.00;59042.03;5099470;28;20128;-56
2022/11/30 05:06:16;;;;;;;63.40;16.05;;;;;;;0.01;0.00;59042.03;5098606;28;20031;-55
2022/11/30 05:08:41;;;;;;;61.38;17.83;;;;;;;0.01;0.00;59042.03;5099458;28;20118;-53
2022/11/30 05:11:07;;;;;;;74.63;16.52;;;;;;;0.01;0.00;59042.03;5098506;28;20083;-55
2022/11/30 05:13:32;;;;;;;62.30;16.23;;;;;;;0.01;0.00;59042.03;5099315;28;20043;-54
2022/11/30 05:15:57;;;;;;;59.92;13.63;;;;;;;0.01;0.00;59042.03;5098117;28;20065;-52
2022/11/30 05:18:23;;;;;;;69.72;18.35;;;;;;;0.01;0.00;59042.03;5098886;28;20104;-53
2022/11/30 05:20:50;;;;;;;60.03;16.70;;;;;;;0.01;0.00;59042.03;5098688;28;20114;-54
2022/11/30 05:23:16;;;;;;;63.33;15.45;;;;;;;0.01;0.00;59042.03;5098464;28;20035;-53
2022/11/30 05:25:43;;;;;;;64.43;17.35;;;;;;;0.01;0.00;59042.03;5098748;28;20073;-54
2022/11/30 05:28:08;;;;;;;63.47;15.82;;;;;;;0.01;0.00;59042.03;5098921;28;20024;-52
2022/11/30 05:30:33;;;;;;;69.50;18.30;;;;;;;0.01;0.00;59042.03;5097797;28;20100;-54
2022/11/30 05:32:59;;;;;;;73.05;18.63;;;;;;;0.01;0.00;59042.03;5098536;28;20110;-53
2022/11/30 05:35:24;;;;;;;65.90;16.70;;;;;;;0.01;0.00;59042.03;5098175;28;20146;-53
2022/11/30 05:37:50;;;;;;;77.30;17.58;;;;;;;0.01;0.00;59042.03;5099383;28;20434;-52
2022/11/30 05:40:15;;;;;;;64.40;16.75;;;;;;;0.01;0.00;59042.03;5079664;28;20022;-52
2022/11/30 05:42:40;;;;;;;85.45;19.50;;;;;;;0.01;0.00;59042.03;5099104;28;20028;-52
2022/11/30 05:45:06;;;;;;;75.32;17.20;;;;;;;0.01;0.00;59042.03;5098750;28;20059;-52
2022/11/30 05:47:31;;;;;;;61.88;15.40;;;;;;;0.01;0.00;59042.03;5098387;28;20046;-52
2022/11/30 05:49:57;;;;;;;68.15;17.23;;;;;;;0.01;0.00;59042.03;5098342;28;20035;-51
2022/11/30 05:52:22;;;;;;;36.70;9.82;;;;;;;0.01;0.00;59042.03;5098632;28;20036;-53
2022/11/30 05:54:47;;;;;;;75.22;19.02;;;;;;;0.01;0.00;59042.03;5098713;28;20043;-53
2022/11/30 05:57:13;;;;;;;72.22;19.20;;;;;;;0.01;0.00;59042.03;5098432;28;20097;-53
2022/11/30 05:59:39;;;;;;;62.20;15.48;;;;;;;0.01;0.00;59042.03;5097180;28;20109;-51
2022/11/30 06:02:05;;;;;;;72.13;16.80;;;;;;;0.01;0.00;59042.03;5096820;28;20035;-52
2022/11/30 06:04:32;;;;;;;71.38;18.27;;;;;;;0.01;0.00;59042.03;5098397;28;20034;-52
2022/11/30 06:06:57;;;;;;;74.50;18.45;;;;;;;0.01;0.00;59042.03;5079461;28;20584;-53
2022/11/30 06:09:23;;;;;;;76.75;19.83;;;;;;;0.01;0.00;59042.03;5080200;28;20516;-53
2022/11/30 06:11:48;;;;;;;70.18;18.77;;;;;;;0.01;0.00;59042.03;5097481;28;20031;-51
2022/11/30 06:14:13;;;;;;;74.00;18.73;;;;;;;0.01;0.00;59042.03;5098579;28;20023;-51
2022/11/30 06:16:39;;;;;;;79.47;19.77;;;;;;;0.01;0.00;59042.03;5097752;28;20039;-52
2022/11/30 06:19:04;;;;;;;74.72;19.13;;;;;;;0.01;0.00;59042.03;5098313;28;20036;-53
2022/11/30 06:21:30;;;;;;;72.38;20.13;;;;;;;0.01;0.00;59042.03;5097626;28;20035;-54
2022/11/30 06:23:56;;;;;;;81.30;18.50;;;;;;;0.01;0.00;59042.03;5098315;28;20059;-54
2022/11/30 06:26:21;;;;;;;57.42;14.27;;;;;;;0.01;0.00;59042.03;5097261;28;20065;-52
2022/11/30 06:28:46;;;;;;;67.85;16.48;;;;;;;0.01;0.00;59042.03;5097990;28;20384;-52
2022/11/30 06:31:12;;;;;;;74.10;18.50;;;;;;;0.01;0.00;59042.03;5097329;28;20028;-52
2022/11/30 06:33:37;;;;;;;63.63;13.63;;;;;;;0.01;0.00;59042.03;5098200;28;20027;-53
2022/11/30 06:36:03;;;;;;;70.25;18.90;;;;;;;0.01;0.00;59042.03;5097439;28;20518;-53
2022/11/30 06:38:28;;;;;;;71.65;16.63;;;;;;;0.01;0.00;59042.03;5098474;28;20039;-52
2022/11/30 06:40:54;;;;;;;74.32;18.63;;;;;;;0.01;0.00;59042.03;5097152;28;20123;-53
2022/11/30 06:43:19;;;;;;;81.63;19.38;;;;;;;0.01;0.00;59042.03;5097990;28;20088;-52
2022/11/30 06:45:46;;;;;;;74.93;18.50;;;;;;;0.01;0.00;59042.03;5098092;28;20534;-52
2022/11/30 06:48:12;;;;;;;72.32;18.15;;;;;;;0.01;0.00;59042.03;5097678;28;20093;-52
2022/11/30 06:50:38;;;;;;;78.32;19.92;;;;;;;0.01;0.00;59042.03;5097433;28;20032;-53
2022/11/30 06:53:03;;;;;;;77.25;20.38;;;;;;;0.01;0.00;59042.03;5098033;28;20039;-52
2022/11/30 06:55:31;;;;;;;69.75;16.38;;;;;;;0.01;0.00;59042.03;5097397;28;20031;-52
2022/11/30 06:58:07;;;;;;;85.15;19.73;;;;;;;0.01;0.00;59042.03;5098334;28;20030;-52
2022/11/30 07:00:33;;;;;;;88.45;20.65;;;;;;;0.01;0.00;59042.03;5094975;28;20039;-52
2022/11/30 07:02:59;;;;;;;78.80;21.35;;;;;;;0.01;0.00;59042.03;5098064;28;20024;-53
2022/11/30 07:05:24;;;;;;;78.60;20.27;;;;;;;0.01;0.00;59042.03;5097261;28;20047;-52
2022/11/30 07:07:49;;;;;;;75.68;19.55;;;;;;;0.01;0.00;59042.03;5097394;28;20028;-52
2022/11/30 07:10:15;;;;;;;70.57;18.73;;;;;;;0.01;0.00;59042.03;5097579;28;20107;-53
2022/11/30 07:12:40;;;;;;;84.78;20.30;;;;;;;0.01;0.00;59042.03;5097396;28;20042;-52
2022/11/30 07:15:06;;;;;;;43.55;10.10;;;;;;;0.01;0.00;59042.03;5101930;28;20023;-54
2022/11/30 07:17:31;;;;;;;76.05;19.40;;;;;;;0.01;0.00;59042.03;5101160;28;20043;-53
2022/11/30 07:19:57;;;;;;;74.88;17.05;;;;;;;0.01;0.00;59042.03;5101630;28;20015;-52
2022/11/30 07:22:22;;;;;;;77.55;16.90;;;;;;;0.01;0.00;59042.03;5101474;28;20043;-54
2022/11/30 07:27:31;;;;;;;62.65;16.75;;;;;;;0.01;0.00;59042.03;5101533;28;20089;-53
2022/11/30 07:29:56;;;;;;;70.43;18.80;;;;;;;0.01;0.00;59042.03;5101112;28;20024;-53
2022/11/30 07:32:21;;;;;;;72.25;17.35;;;;;;;0.01;0.00;59042.03;5100926;28;20032;-55
2022/11/30 07:34:47;;;;;;;69.28;18.17;;;;;;;0.01;0.00;59042.03;5101219;28;20580;-53
2022/11/30 07:37:12;;;;;;;65.78;15.98;;;;;;;0.01;0.00;59042.03;5100940;28;20756;-55
2022/11/30 07:39:37;;;;;;;80.90;19.92;;;;;;;0.01;0.00;59042.03;5101575;28;20475;-53
2022/11/30 07:42:03;;;;;;;70.57;17.00;;;;;;;0.01;0.00;59042.03;5100701;28;20032;-53
2022/11/30 07:44:28;;;;;;;69.13;16.52;;;;;;;0.01;0.00;59042.03;5101569;28;20059;-54
2022/11/30 07:46:53;;;;;;;70.95;16.92;;;;;;;0.01;0.00;59042.03;5100565;28;20050;-52
2022/11/30 07:49:19;;;;;;;63.88;15.15;;;;;;;0.01;0.00;59042.03;5101444;28;20067;-53
2022/11/30 07:51:44;;;;;;;72.72;19.42;;;;;;;0.01;0.00;59042.03;5100518;28;20042;-54
2022/11/30 07:54:10;;;;;;;69.28;19.40;;;;;;;0.01;0.00;59042.03;5100992;28;20061;-53
2022/11/30 07:56:35;;;;;;;76.30;19.05;;;;;;;0.01;0.00;59042.03;5100739;28;20122;-54
2022/11/30 07:59:01;;;;;;;71.82;18.40;;;;;;;0.01;0.00;59042.03;5101108;28;20072;-55
2022/11/30 08:01:30;;;;;;;72.82;17.70;;;;;;;0.01;0.00;59042.03;5100226;28;20042;-53
2022/11/30 08:03:56;;;;;;;69.82;17.05;;;;;;;0.01;0.00;59042.03;5100893;28;20623;-52
2022/11/30 08:06:26;;;;;;;77.75;19.30;;;;;;;0.01;0.00;59042.03;5100154;28;20054;-53
2022/11/30 08:08:55;;;;;;;54.45;14.50;;;;;;;0.01;0.00;59042.03;5100765;28;20471;-53
2022/11/30 08:11:26;;;;;;;92.65;23.13;;;;;;;0.01;0.00;59042.03;5099671;28;20040;-54
2022/11/30 08:13:52;;;;;;;65.90;15.57;;;;;;;0.01;0.00;59042.03;5100442;28;20027;-53
2022/11/30 08:16:22;;;;;;;82.43;21.33;;;;;;;0.01;0.00;59042.03;5099893;28;20032;-53
2022/11/30 08:18:48;;;;;;;75.80;18.60;;;;;;;0.01;0.00;59042.03;5101049;28;20027;-53
2022/11/30 08:21:17;;;;;;;82.90;23.83;;;;;;;0.01;0.00;59042.03;5100066;28;20498;-52
2022/11/30 08:23:50;;;;;;;75.85;21.65;;;;;;;0.01;0.00;59042.03;5100751;28;20033;-53
2022/11/30 08:26:21;;;;;;;81.40;20.42;;;;;;;0.01;0.00;59042.03;5098796;28;20035;-53
2022/11/30 08:28:48;;;;;;;79.82;20.88;;;;;;;0.01;0.00;59042.03;5100679;28;20035;-53
2022/11/30 08:31:25;;;;;;;85.05;20.27;;;;;;;0.01;0.00;59042.03;5099606;28;20031;-54
2022/11/30 08:33:59;;;;;;;69.72;18.45;;;;;;;0.01;0.00;59042.03;5099829;28;20100;-53
2022/11/30 08:36:26;;;;;;;75.03;19.02;;;;;;;0.01;0.00;59042.03;5099263;28;20040;-53
2022/11/30 08:38:51;;;;;;;62.22;18.88;;;;;;;0.01;0.00;59042.03;5100031;28;20036;-55
2022/11/30 08:41:20;;;;;;;64.45;17.20;;;;;;;0.01;0.00;59042.03;5099202;28;20096;-53
2022/11/30 08:43:46;;;;;;;59.80;15.80;;;;;;;0.01;0.00;59042.03;5099303;28;20079;-56
2022/11/30 08:46:13;;;;;;;65.65;19.38;;;;;;;0.01;0.00;59042.03;5099004;27;20043;-55
2022/11/30 08:48:38;;;;;;;68.07;17.33;;;;;;;0.01;0.00;59042.03;5099144;27;20330;-53
2022/11/30 08:51:06;;;;;;;67.03;19.85;;;;;;;0.01;0.00;59042.03;5099497;28;20305;-53
2022/11/30 08:53:32;;;;;;;57.58;16.58;;;;;;;0.01;0.00;59042.03;5099123;28;20086;-53
2022/11/30 08:56:03;;;;;;;52.40;14.13;;;;;;;0.01;0.00;59042.03;5098527;28;20059;-53
2022/11/30 08:58:30;;;;;;;59.17;17.27;;;;;;;0.01;0.00;59042.03;5099128;28;20114;-53
2022/11/30 09:01:14;;;;;;;62.70;16.90;;;;;;;0.01;0.00;59042.03;5098655;28;20067;-54
2022/11/30 09:03:41;;;;;;;38.90;11.48;;;;;;;0.01;0.00;59042.03;5099345;28;20081;-52
2022/11/30 09:06:13;;;;;;;56.25;15.50;;;;;;;0.01;0.00;59042.03;5098619;28;20477;-52
2022/11/30 09:08:40;;;;;;;55.40;16.73;;;;;;;0.01;0.00;59042.03;5099155;28;20484;-53
2022/11/30 09:11:08;;;;;;;59.63;16.85;;;;;;;0.01;0.00;59042.03;5098484;28;20051;-52
2022/11/30 09:13:33;;;;;;;50.72;14.05;;;;;;;0.01;0.00;59042.03;5099824;28;20439;-53
2022/11/30 09:15:59;;;;;;;65.03;19.75;;;;;;;0.01;0.00;59042.03;5098987;28;20036;-53
2022/11/30 09:18:24;;;;;;;50.50;13.88;;;;;;;0.01;0.00;59042.03;5099733;28;20042;-53
2022/11/30 09:20:49;;;;;;;50.25;15.82;;;;;;;0.01;0.00;59042.03;5098963;28;20037;-53
2022/11/30 09:23:15;;;;;;;32.22;7.68;;;;;;;0.01;0.00;59042.03;5099800;28;20036;-52
2022/11/30 09:25:40;;;;;;;56.10;16.42;;;;;;;0.01;0.00;59042.03;5098351;28;20031;-53
2022/11/30 09:28:05;;;;;;;64.85;18.33;;;;;;;0.01;0.00;59042.03;5099058;28;20483;-54
2022/11/30 09:30:31;;;;;;;45.28;13.57;;;;;;;0.01;0.00;59042.03;5098588;28;20058;-53
2022/11/30 09:32:59;;;;;;;50.85;15.35;;;;;;;0.01;0.00;59042.03;5098916;28;20027;-54
2022/11/30 09:35:24;;;;;;;43.75;13.80;;;;;;;0.01;0.00;59042.03;5098692;28;20308;-54
2022/11/30 09:37:51;;;;;;;45.45;14.38;;;;;;;0.01;0.00;59042.03;5099087;28;20393;-53
2022/11/30 09:40:20;;;;;;;52.05;15.88;;;;;;;0.01;0.00;59042.03;5097703;28;20503;-56
2022/11/30 09:43:06;;;;;;;47.83;17.08;;;;;;;0.01;0.00;59042.03;5080973;28;20035;-53
2022/11/30 09:45:34;;;;;;;48.88;16.35;;;;;;;0.01;0.00;59042.03;5098124;28;20036;-53
2022/11/30 09:48:23;;;;;;;49.08;14.90;;;;;;;0.01;0.00;59042.03;5098869;28;20020;-52
2022/11/30 09:50:49;;;;;;;45.28;14.88;;;;;;;0.01;0.00;59042.03;5098211;28;20032;-52
2022/11/30 09:53:38;;;;;;;44.50;13.38;;;;;;;0.01;0.00;59042.03;5099110;28;20126;-53
2022/11/30 09:56:14;;;;;;;47.22;16.50;;;;;;;0.01;0.00;59042.03;5098413;28;20067;-53
2022/11/30 09:58:47;;;;;;;72.60;16.42;;;;;;;0.01;0.00;59042.03;5098355;28;20054;-53
2022/11/30 10:01:17;;;;;;;46.10;15.15;;;;;;;0.01;0.00;59042.03;5098018;28;20076;-53
2022/11/30 10:03:42;;;;;;;50.85;14.88;;;;;;;0.01;0.00;59042.03;5098146;28;20703;-52
2022/11/30 10:06:14;;;;;;;46.30;14.32;;;;;;;0.01;0.00;59042.03;5098015;28;20060;-55
2022/11/30 10:08:51;;;;;;;52.45;16.38;;;;;;;0.01;0.00;59042.03;5098074;28;20054;-52
2022/11/30 10:11:39;;;;;;;49.85;16.98;;;;;;;0.01;0.00;59042.03;5098158;28;20092;-52
2022/11/30 10:14:27;;;;;;;46.70;15.60;;;;;;;0.01;0.00;59042.03;5098532;28;20093;-53
2022/11/30 10:17:16;;;;;;;43.42;14.35;;;;;;;0.01;0.00;59042.03;5097673;28;20058;-52
2022/11/30 10:19:56;;;;;;;50.05;16.23;;;;;;;0.01;0.00;59042.03;5098434;28;20012;-56
2022/11/30 10:22:38;;;;;;;49.13;15.05;;;;;;;0.01;0.00;59042.03;5098482;28;20081;-53
2022/11/30 10:25:24;;;;;;;39.05;11.50;;;;;;;0.01;0.00;59042.03;5097964;28;20103;-53
2022/11/30 10:27:59;;;;;;;55.90;16.20;;;;;;;0.01;0.00;59042.03;5098337;28;20088;-54
2022/11/30 10:30:34;;;;;;;49.10;15.55;;;;;;;0.01;0.00;59042.03;5097525;28;20100;-53
2022/11/30 10:33:09;;;;;;;55.65;17.73;;;;;;;0.01;0.00;59042.03;5097764;28;20026;-52
2022/11/30 10:35:40;;;;;;;42.15;12.25;;;;;;;0.01;0.00;59042.03;5097848;28;20042;-52
2022/11/30 10:38:27;;;;;;;46.83;14.30;;;;;;;0.01;0.00;59042.03;5098522;28;20039;-54
2022/11/30 10:40:56;;;;;;;52.33;15.20;;;;;;;0.01;0.00;59042.03;5097195;28;20118;-52
2022/11/30 10:43:21;;;;;;;45.25;14.75;;;;;;;0.01;0.00;59042.03;5098620;28;20023;-53
2022/11/30 10:45:49;;;;;;;51.40;14.57;;;;;;;0.01;0.00;59042.03;5097787;28;20637;-54
2022/11/30 10:48:20;;;;;;;45.53;15.52;;;;;;;0.01;0.00;59042.03;5098419;28;20025;-55
2022/11/30 10:50:46;;;;;;;49.90;16.85;;;;;;;0.01;0.00;59042.03;5101866;28;20035;-52
2022/11/30 10:53:12;;;;;;;48.13;14.88;;;;;;;0.01;0.00;59042.03;5102585;28;20073;-54
2022/11/30 10:55:46;;;;;;;54.05;18.48;;;;;;;0.01;0.00;59042.03;5102085;28;20396;-52
2022/11/30 10:58:23;;;;;;;56.97;16.70;;;;;;;0.01;0.00;59042.03;5084447;28;20023;-53
2022/11/30 11:01:05;;;;;;;42.75;14.73;;;;;;;0.01;0.00;59042.03;5101460;28;20089;-54
2022/11/30 11:03:30;;;;;;;45.63;16.95;;;;;;;0.01;0.00;59042.03;5102036;28;20049;-54
2022/11/30 11:06:06;;;;;;;43.05;14.20;;;;;;;0.01;0.00;59042.03;5101188;28;20043;-52
2022/11/30 11:08:31;;;;;;;41.67;13.82;;;;;;;0.01;0.00;59042.03;5101921;28;20023;-53
2022/11/30 11:10:56;;;;;;;39.22;11.23;;;;;;;0.01;0.00;59042.03;5082999;28;20089;-55
2022/11/30 11:13:42;;;;;;;48.53;14.07;;;;;;;0.01;0.00;59042.03;5102105;28;20104;-53
2022/11/30 11:16:10;;;;;;;42.28;13.20;;;;;;;0.01;0.00;59042.03;5101525;28;20301;-52
2022/11/30 11:18:50;;;;;;;41.80;14.45;;;;;;;0.01;0.00;59042.03;5101846;28;20378;-53
2022/11/30 11:21:18;;;;;;;45.38;15.65;;;;;;;0.01;0.00;59042.03;5101184;28;20035;-53
2022/11/30 11:23:45;;;;;;;43.88;13.75;;;;;;;0.01;0.00;59042.03;5101521;28;20088;-56
2022/11/30 11:26:23;;;;;;;46.17;14.05;;;;;;;0.01;0.00;59042.03;5101139;28;20044;-53
2022/11/30 11:28:51;;;;;;;37.58;13.18;;;;;;;0.01;0.00;59042.03;5101487;28;20106;-54
2022/11/30 11:31:39;;;;;;;47.90;17.30;;;;;;;0.01;0.00;59042.03;5101239;28;20108;-53
2022/11/30 11:34:23;;;;;;;40.08;13.18;;;;;;;0.01;0.00;59042.03;5101745;28;20028;-54
2022/11/30 11:37:04;;;;;;;49.00;14.68;;;;;;;0.01;0.00;59042.03;5101090;28;20118;-53
2022/11/30 11:39:29;;;;;;;43.65;13.85;;;;;;;0.01;0.00;59042.03;5100735;28;20511;-54
2022/11/30 11:41:55;;;;;;;46.00;12.93;;;;;;;0.01;0.00;59042.03;5100779;28;20126;-54